createdAt,value
2023-03-25T00:02:09.062Z,99729.13
2023-03-25T00:04:54.879Z,99729.34
2023-03-25T00:07:40.781Z,99721.88
2023-03-25T00:10:26.313Z,99727.31
2023-03-25T00:13:13.625Z,99734.31
2023-03-25T00:15:59.784Z,99742.16
2023-03-25T00:18:48.002Z,99746.31
2023-03-25T00:21:33.545Z,99735.88
2023-03-25T00:24:18.521Z,99742.28
2023-03-25T00:27:04.024Z,99742.38
2023-03-25T00:29:49.062Z,99739.66
2023-03-25T00:32:34.309Z,99745.09
2023-03-25T00:35:20.509Z,99756.25
2023-03-25T00:38:07.731Z,99744.50
2023-03-25T00:40:53.122Z,99748.56
2023-03-25T00:43:38.664Z,99751.34
2023-03-25T00:46:27.030Z,99752.41
2023-03-25T00:49:12.756Z,99752.09
2023-03-25T00:51:57.703Z,99749.59
2023-03-25T00:54:45.729Z,99747.00
2023-03-25T00:57:31.407Z,99747.81
2023-03-25T01:00:18.334Z,99748.75
2023-03-25T01:03:04.147Z,99751.50
2023-03-25T01:05:50.630Z,99742.22
2023-03-25T01:08:35.917Z,99748.88
2023-03-25T01:11:23.790Z,99748.88
2023-03-25T01:14:24.255Z,99746.28
2023-03-25T01:17:11.122Z,99746.28
2023-03-25T01:19:56.131Z,99753.28
2023-03-25T01:22:41.272Z,99756.94
2023-03-25T01:25:26.193Z,99751.72
2023-03-25T01:28:11.552Z,99735.34
2023-03-25T01:31:02.016Z,99739.09
2023-03-25T01:33:47.208Z,99731.28
2023-03-25T01:36:32.633Z,99741.03
2023-03-25T01:39:18.831Z,99740.16
2023-03-25T01:42:04.380Z,99740.47
2023-03-25T01:44:52.610Z,99747.88
2023-03-25T01:47:38.079Z,99752.88
2023-03-25T01:50:23.586Z,99733.19
2023-03-25T01:53:10.293Z,99744.22
2023-03-25T01:55:56.632Z,99746.25
2023-03-25T01:58:44.083Z,99748.50
2023-03-25T02:01:31.314Z,99753.94
2023-03-25T02:04:27.236Z,99738.97
2023-03-25T02:07:16.416Z,99738.16
2023-03-25T02:10:06.695Z,99750.59
2023-03-25T02:12:51.886Z,99749.03
2023-03-25T02:15:59.409Z,99747.38
2023-03-25T02:18:58.706Z,99744.56
2023-03-25T02:22:21.574Z,99742.91
2023-03-25T02:25:25.386Z,99749.19
2023-03-25T02:28:11.741Z,99759.84
2023-03-25T02:31:18.013Z,99765.06
2023-03-25T02:34:33.698Z,99755.53
2023-03-25T02:37:34.460Z,99745.47
2023-03-25T02:40:41.946Z,99762.03
2023-03-25T02:43:58.752Z,99748.06
2023-03-25T02:46:50.132Z,99735.97
2023-03-25T02:49:40.444Z,99743.78
2023-03-25T02:52:38.124Z,99756.13
2023-03-25T02:55:25.506Z,99756.13
2023-03-25T02:58:13.550Z,99767.38
2023-03-25T03:00:59.056Z,99768.22
2023-03-25T03:03:44.213Z,99766.56
2023-03-25T03:06:29.658Z,99739.03
2023-03-25T03:09:38.022Z,99748.31
2023-03-25T03:12:45.900Z,99758.00
2023-03-25T03:15:40.642Z,99766.56
2023-03-25T03:18:57.273Z,99762.59
2023-03-25T03:22:01.266Z,99765.41
2023-03-25T03:24:54.274Z,99767.22
2023-03-25T03:27:49.858Z,99772.66
2023-03-25T03:30:49.322Z,99774.28
2023-03-25T03:33:53.662Z,99762.53
2023-03-25T03:36:44.615Z,99780.47
2023-03-25T03:39:36.024Z,99767.53
2023-03-25T03:42:28.858Z,99778.59
2023-03-25T03:45:27.452Z,99782.03
2023-03-25T03:48:17.706Z,99779.50
2023-03-25T03:51:09.289Z,99791.63
2023-03-25T03:54:33.102Z,99791.50
2023-03-25T03:57:22.298Z,99792.00
2023-03-25T04:00:16.708Z,99775.53
2023-03-25T04:03:05.004Z,99773.25
2023-03-25T04:06:00.831Z,99794.75
2023-03-25T04:09:00.629Z,99789.72
2023-03-25T04:11:59.765Z,99796.94
2023-03-25T04:14:45.536Z,99813.75
2023-03-25T04:17:32.931Z,99817.78
2023-03-25T04:20:26.226Z,99809.75
2023-03-25T04:23:16.218Z,99826.34
2023-03-25T04:26:02.775Z,99818.75
2023-03-25T04:28:47.876Z,99829.88
2023-03-25T04:31:33.411Z,99823.84
2023-03-25T04:34:20.560Z,99817.28
2023-03-25T04:37:06.327Z,99816.69
2023-03-25T04:39:51.914Z,99839.69
2023-03-25T04:42:37.453Z,99820.31
2023-03-25T04:45:22.593Z,99838.34
2023-03-25T04:48:20.014Z,99833.34
2023-03-25T04:51:05.198Z,99830.97
2023-03-25T04:53:50.398Z,99837.91
2023-03-25T04:56:36.777Z,99830.22
2023-03-25T04:59:23.188Z,99832.31
2023-03-25T05:02:13.492Z,99856.06
2023-03-25T05:05:02.252Z,99863.78
2023-03-25T05:07:49.457Z,99845.31
2023-03-25T05:10:36.306Z,99848.03
2023-03-25T05:13:21.683Z,99852.81
2023-03-25T05:16:07.521Z,99861.34
2023-03-25T05:18:53.067Z,99862.31
2023-03-25T05:21:41.013Z,99849.81
2023-03-25T05:24:26.303Z,99861.47
2023-03-25T05:27:11.501Z,99865.31
2023-03-25T05:30:00.337Z,99870.28
2023-03-25T05:32:50.746Z,99870.28
2023-03-25T05:35:42.823Z,99879.34
2023-03-25T05:38:28.248Z,99886.66
2023-03-25T05:41:16.934Z,99889.97
2023-03-25T05:44:02.962Z,99890.69
2023-03-25T05:46:47.951Z,99883.09
2023-03-25T05:49:33.019Z,99897.88
2023-03-25T05:52:19.708Z,99895.13
2023-03-25T05:55:05.050Z,99900.25
2023-03-25T05:57:50.446Z,99892.44
2023-03-25T06:00:37.254Z,99906.19
2023-03-25T06:03:26.156Z,99906.44
2023-03-25T06:06:15.157Z,99919.34
2023-03-25T06:09:00.392Z,99906.19
2023-03-25T06:11:46.600Z,99924.75
2023-03-25T06:14:31.557Z,99930.78
2023-03-25T06:17:19.042Z,99933.31
2023-03-25T06:20:12.663Z,99931.41
2023-03-25T06:22:57.550Z,99933.31
2023-03-25T06:25:43.112Z,99938.09
2023-03-25T06:28:28.395Z,99935.97
2023-03-25T06:31:20.516Z,99932.81
2023-03-25T06:34:05.715Z,99930.91
2023-03-25T06:36:54.077Z,99937.91
2023-03-25T06:39:39.337Z,99938.22
2023-03-25T06:42:24.329Z,99950.22
2023-03-25T06:45:10.274Z,99943.84
2023-03-25T06:47:55.554Z,99939.22
2023-03-25T06:50:42.683Z,99943.28
2023-03-25T06:53:29.312Z,99927.66
2023-03-25T06:56:14.462Z,99940.22
2023-03-25T06:58:59.912Z,99929.03
2023-03-25T07:01:44.874Z,99948.53
2023-03-25T07:04:30.540Z,99947.09
2023-03-25T07:07:15.634Z,99956.84
2023-03-25T07:10:01.213Z,99963.16
2023-03-25T07:12:46.414Z,99954.53
2023-03-25T07:15:31.591Z,99944.81
2023-03-25T07:18:16.900Z,99956.25
2023-03-25T07:21:01.906Z,99967.31
2023-03-25T07:23:46.920Z,99966.47
2023-03-25T07:26:32.013Z,99985.50
2023-03-25T07:29:16.765Z,99961.47
2023-03-25T07:32:02.028Z,99962.66
2023-03-25T07:34:47.082Z,99977.78
2023-03-25T07:37:32.380Z,99988.84
2023-03-25T07:40:17.321Z,99984.56
2023-03-25T07:43:02.641Z,99986.94
2023-03-25T07:45:48.033Z,99986.97
2023-03-25T07:48:33.415Z,99979.00
2023-03-25T07:51:18.558Z,99981.75
2023-03-25T07:54:04.976Z,99958.53
2023-03-25T07:56:54.590Z,99966.25
2023-03-25T07:59:40.446Z,99985.44
2023-03-25T08:02:25.526Z,99977.78
2023-03-25T08:05:10.878Z,99994.09
2023-03-25T08:08:00.134Z,99988.50
2023-03-25T08:10:47.320Z,99993.47
2023-03-25T08:13:32.838Z,99999.34
2023-03-25T08:16:18.408Z,100006.59
2023-03-25T08:19:03.707Z,100010.28
2023-03-25T08:21:49.010Z,100020.16
2023-03-25T08:24:34.221Z,100024.53
2023-03-25T08:27:19.640Z,100024.78
2023-03-25T08:30:05.654Z,100024.53
2023-03-25T08:32:54.634Z,100035.25
2023-03-25T08:35:40.803Z,100032.44
2023-03-25T08:38:31.895Z,100037.41
2023-03-25T08:41:19.736Z,100040.53
2023-03-25T08:44:06.076Z,100044.56
2023-03-25T08:46:51.321Z,100045.28
2023-03-25T08:49:36.267Z,100048.38
2023-03-25T08:52:21.535Z,100054.09
2023-03-25T08:55:12.220Z,100066.69
2023-03-25T08:58:01.398Z,100065.16
2023-03-25T09:00:47.114Z,100053.97
2023-03-25T09:03:33.010Z,100075.03
2023-03-25T09:06:18.387Z,100075.28
2023-03-25T09:09:05.448Z,100064.53
2023-03-25T09:11:50.494Z,100085.03
2023-03-25T09:14:36.021Z,100074.81
2023-03-25T09:17:21.439Z,100092.66
2023-03-25T09:20:10.775Z,100095.66
2023-03-25T09:22:57.622Z,100093.50
2023-03-25T09:25:43.126Z,100114.69
2023-03-25T09:28:28.660Z,100111.56
2023-03-25T09:31:14.951Z,100120.72
2023-03-25T09:34:01.333Z,100099.88
2023-03-25T09:36:46.732Z,100122.59
2023-03-25T09:39:31.958Z,100136.69
2023-03-25T09:42:54.419Z,100137.88
2023-03-25T09:45:43.126Z,100133.09
2023-03-25T09:48:42.888Z,100143.44
2023-03-25T09:51:30.866Z,100147.56
2023-03-25T09:54:25.890Z,100142.75
2023-03-25T09:57:17.501Z,100147.78
2023-03-25T10:00:06.951Z,100156.63
2023-03-25T10:03:18.719Z,100149.84
2023-03-25T10:06:10.584Z,100158.75
2023-03-25T10:08:58.579Z,100159.19
2023-03-25T10:12:06.564Z,100169.66
2023-03-25T10:15:16.738Z,100178.84
2023-03-25T10:18:20.423Z,100179.47
2023-03-25T10:21:20.724Z,100170.47
2023-03-25T10:24:14.963Z,100189.41
2023-03-25T10:27:06.828Z,100189.09
2023-03-25T10:30:04.714Z,100183.00
2023-03-25T10:32:54.976Z,100187.41
2023-03-25T10:35:47.719Z,100194.78
2023-03-25T10:38:35.977Z,100198.28
2023-03-25T10:41:31.227Z,100206.81
2023-03-25T10:44:16.693Z,100197.47
2023-03-25T10:47:06.691Z,100198.63
2023-03-25T10:49:52.739Z,100217.09
2023-03-25T10:52:37.989Z,100213.03
2023-03-25T10:55:32.741Z,100218.94
2023-03-25T10:58:19.001Z,100236.75
2023-03-25T11:01:12.992Z,100229.78
2023-03-25T11:04:00.679Z,100236.94
2023-03-25T11:06:52.628Z,100250.47
2023-03-25T11:09:38.933Z,100264.09
2023-03-25T11:12:36.657Z,100261.72
2023-03-25T11:15:35.247Z,100258.59
2023-03-25T11:18:40.704Z,100274.56
2023-03-25T11:21:30.418Z,100266.59
2023-03-25T11:24:19.364Z,100277.75
2023-03-25T11:27:08.262Z,100272.91
2023-03-25T11:29:56.929Z,100260.00
2023-03-25T11:32:42.794Z,100270.38
2023-03-25T11:35:30.850Z,100270.03
2023-03-25T11:38:32.468Z,100277.53
2023-03-25T11:41:17.729Z,100265.91
2023-03-25T11:44:05.268Z,100257.38
2023-03-25T11:46:52.623Z,100268.72
2023-03-25T11:49:41.350Z,100277.38
2023-03-25T11:52:45.636Z,100290.38
2023-03-25T11:55:36.252Z,100264.16
2023-03-25T11:58:28.715Z,100274.50
2023-03-25T12:01:36.789Z,100295.94
2023-03-25T12:04:23.866Z,100296.66
2023-03-25T12:07:10.324Z,100291.13
2023-03-25T12:10:05.410Z,100299.03
2023-03-25T12:13:11.695Z,100286.09
2023-03-25T12:16:15.575Z,100287.00
2023-03-25T12:19:38.677Z,100292.75
2023-03-25T12:22:45.256Z,100304.53
2023-03-25T12:26:04.547Z,100266.09
2023-03-25T12:28:55.449Z,100300.38
2023-03-25T12:32:01.429Z,100299.09
2023-03-25T12:35:06.255Z,100297.72
2023-03-25T12:38:13.299Z,100291.06
2023-03-25T12:41:20.242Z,100290.81
2023-03-25T12:44:23.895Z,100309.53
2023-03-25T12:47:35.205Z,100289.28
2023-03-25T12:50:46.104Z,100295.25
2023-03-25T12:53:41.554Z,100288.47
2023-03-25T12:56:54.445Z,100300.25
2023-03-25T13:00:14.652Z,100306.03
2023-03-25T13:03:02.942Z,100285.94
2023-03-25T13:05:58.277Z,100296.09
2023-03-25T13:09:09.705Z,100284.84
2023-03-25T13:11:59.607Z,100278.94
2023-03-25T13:15:00.383Z,100279.03
2023-03-25T13:17:55.994Z,100297.63
2023-03-25T13:20:49.538Z,100292.13
2023-03-25T13:23:37.874Z,100312.44
2023-03-25T13:26:27.042Z,100344.50
2023-03-25T13:29:29.927Z,100337.81
2023-03-25T13:32:23.436Z,100341.56
2023-03-25T13:35:24.585Z,100350.19
2023-03-25T13:38:19.624Z,100334.66
2023-03-25T13:41:12.898Z,100343.25
2023-03-25T13:44:04.289Z,100340.75
2023-03-25T13:47:12.516Z,100336.59
2023-03-25T13:50:01.663Z,100346.28
2023-03-25T13:52:55.141Z,100336.81
2023-03-25T13:56:08.767Z,100331.72
2023-03-25T13:59:09.232Z,100328.38
2023-03-25T14:02:31.983Z,100331.28
2023-03-25T14:05:54.677Z,100311.84
2023-03-25T14:09:21.347Z,100331.41
2023-03-25T14:12:12.036Z,100315.22
2023-03-25T14:15:26.626Z,100318.28
2023-03-25T14:18:20.157Z,100312.66
2023-03-25T14:21:27.258Z,100325.03
2023-03-25T14:24:18.835Z,100328.53
2023-03-25T14:27:26.508Z,100314.63
2023-03-25T14:30:27.809Z,100316.44
2023-03-25T14:33:12.985Z,100323.19
2023-03-25T14:35:58.332Z,100330.59
2023-03-25T14:38:57.740Z,100339.00
2023-03-25T14:42:08.185Z,100315.72
2023-03-25T14:44:56.433Z,100326.94
2023-03-25T14:47:55.761Z,100345.94
2023-03-25T14:50:41.085Z,100340.34
2023-03-25T14:53:27.375Z,100347.97
2023-03-25T14:56:19.393Z,100359.13
2023-03-25T14:59:17.160Z,100357.22
2023-03-25T15:02:30.569Z,100355.44
2023-03-25T15:05:28.592Z,100366.97
2023-03-25T15:08:17.651Z,100358.94
2023-03-25T15:11:07.505Z,100365.44
2023-03-25T15:14:03.258Z,100362.81
2023-03-25T15:16:48.579Z,100361.69
2023-03-25T15:20:26.526Z,100356.69
2023-03-25T15:23:36.338Z,100357.13
2023-03-25T15:26:28.723Z,100363.94
2023-03-25T15:29:32.967Z,100363.50
2023-03-25T15:32:27.313Z,100362.94
2023-03-25T15:35:36.986Z,100373.34
2023-03-25T15:38:47.521Z,100367.06
2023-03-25T15:42:10.010Z,100371.78
2023-03-25T15:45:13.585Z,100372.59
2023-03-25T15:48:32.739Z,100365.88
2023-03-25T15:51:41.597Z,100360.56
2023-03-25T15:54:37.463Z,100377.06
2023-03-25T15:57:41.473Z,100374.63
2023-03-25T16:00:31.826Z,100384.84
2023-03-25T16:03:21.784Z,100378.44
2023-03-25T16:06:08.424Z,100374.22
2023-03-25T16:08:57.799Z,100383.28
2023-03-25T16:11:46.165Z,100378.19
2023-03-25T16:14:33.526Z,100377.72
2023-03-25T16:17:21.830Z,100386.53
2023-03-25T16:20:09.706Z,100374.09
2023-03-25T16:22:57.864Z,100394.94
2023-03-25T16:25:45.984Z,100375.34
2023-03-25T16:28:42.564Z,100390.66
2023-03-25T16:31:34.504Z,100407.97
2023-03-25T16:34:21.038Z,100402.09
2023-03-25T16:37:07.524Z,100404.88
2023-03-25T16:39:54.416Z,100406.78
2023-03-25T16:42:39.698Z,100416.59
2023-03-25T16:45:25.478Z,100406.34
2023-03-25T16:48:21.764Z,100406.94
2023-03-25T16:51:35.301Z,100415.22
2023-03-25T16:54:36.598Z,100412.97
2023-03-25T16:57:27.695Z,100404.06
2023-03-25T17:00:23.101Z,100416.94
2023-03-25T17:03:15.170Z,100422.69
2023-03-25T17:06:04.643Z,100412.19
2023-03-25T17:08:53.407Z,100405.38
2023-03-25T17:11:38.590Z,100410.53
2023-03-25T17:14:30.770Z,100418.19
2023-03-25T17:17:22.130Z,100405.50
2023-03-25T17:20:19.930Z,100395.75
2023-03-25T17:23:17.337Z,100400.78
2023-03-25T17:26:07.456Z,100404.34
2023-03-25T17:28:52.879Z,100402.09
2023-03-25T17:31:40.584Z,100390.06
2023-03-25T17:34:27.796Z,100400.53
2023-03-25T17:37:13.859Z,100404.09
2023-03-25T17:40:06.741Z,100398.16
2023-03-25T17:42:52.886Z,100397.69
2023-03-25T17:45:37.854Z,100399.84
2023-03-25T17:48:23.462Z,100396.00
2023-03-25T17:51:12.214Z,100391.09
2023-03-25T17:53:57.853Z,100397.91
2023-03-25T17:56:43.455Z,100378.81
2023-03-25T17:59:28.354Z,100396.25
2023-03-25T18:02:15.587Z,100400.88
2023-03-25T18:05:01.245Z,100394.06
2023-03-25T18:07:46.423Z,100390.97
2023-03-25T18:10:32.556Z,100387.97
2023-03-25T18:13:18.494Z,100397.03
2023-03-25T18:16:03.529Z,100381.41
2023-03-25T18:18:48.962Z,100391.66
2023-03-25T18:21:34.248Z,100406.75
2023-03-25T18:24:19.779Z,100398.78
2023-03-25T18:27:06.352Z,100394.00
2023-03-25T18:29:51.603Z,100397.78
2023-03-25T18:32:36.600Z,100406.47
2023-03-25T18:35:22.214Z,100420.88
2023-03-25T18:38:19.034Z,100406.03
2023-03-25T18:41:04.939Z,100413.78
2023-03-25T18:43:50.446Z,100422.72
2023-03-25T18:46:36.400Z,100422.94
2023-03-25T18:49:21.476Z,100415.50
2023-03-25T18:52:06.642Z,100426.84
2023-03-25T18:54:51.756Z,100424.31
2023-03-25T18:57:36.701Z,100420.47
2023-03-25T19:00:29.170Z,100432.59
2023-03-25T19:03:15.648Z,100432.84
2023-03-25T19:06:01.312Z,100431.38
2023-03-25T19:08:47.231Z,100436.97
2023-03-25T19:11:33.851Z,100429.31
2023-03-25T19:14:19.350Z,100422.13
2023-03-25T19:17:04.554Z,100426.53
2023-03-25T19:19:49.647Z,100428.91
2023-03-25T19:22:35.117Z,100428.09
2023-03-25T19:25:20.560Z,100421.28
2023-03-25T19:28:06.647Z,100423.91
2023-03-25T19:30:54.479Z,100420.56
2023-03-25T19:33:40.191Z,100425.69
2023-03-25T19:36:25.787Z,100417.84
2023-03-25T19:39:12.485Z,100418.91
2023-03-25T19:41:57.700Z,100417.19
2023-03-25T19:44:43.208Z,100418.25
2023-03-25T19:47:28.754Z,100413.16
2023-03-25T19:50:17.539Z,100406.56
2023-03-25T19:53:06.114Z,100409.06
2023-03-25T19:55:52.280Z,100408.47
2023-03-25T19:58:37.405Z,100402.72
2023-03-25T20:01:23.132Z,100405.34
2023-03-25T20:04:08.360Z,100390.16
2023-03-25T20:06:53.730Z,100397.78
2023-03-25T20:09:40.766Z,100391.81
2023-03-25T20:12:29.146Z,100400.94
2023-03-25T20:15:16.237Z,100397.78
2023-03-25T20:18:01.481Z,100404.38
2023-03-25T20:20:46.710Z,100408.91
2023-03-25T20:23:32.166Z,100398.44
2023-03-25T20:26:17.104Z,100398.44
2023-03-25T20:29:03.171Z,100381.50
2023-03-25T20:31:48.178Z,100393.53
2023-03-25T20:34:33.839Z,100390.16
2023-03-25T20:37:18.878Z,100386.81
2023-03-25T20:40:06.235Z,100377.53
2023-03-25T20:42:51.627Z,100384.19
2023-03-25T20:45:36.905Z,100380.66
2023-03-25T20:48:23.184Z,100371.84
2023-03-25T20:51:12.821Z,100370.91
2023-03-25T20:53:57.909Z,100363.28
2023-03-25T20:56:45.812Z,100366.63
2023-03-25T20:59:31.351Z,100365.66
2023-03-25T21:02:17.030Z,100367.56
2023-03-25T21:05:03.573Z,100363.28
2023-03-25T21:07:48.980Z,100359.59
2023-03-25T21:10:34.034Z,100356.06
2023-03-25T21:13:19.796Z,100351.59
2023-03-25T21:16:05.689Z,100364.31
2023-03-25T21:18:51.328Z,100361.84
2023-03-25T21:21:37.428Z,100353.97
2023-03-25T21:24:22.562Z,100348.75
2023-03-25T21:27:07.652Z,100352.50
2023-03-25T21:29:52.665Z,100348.13
2023-03-25T21:32:38.984Z,100336.72
2023-03-25T21:35:24.429Z,100337.56
2023-03-25T21:38:09.745Z,100337.66
2023-03-25T21:40:56.383Z,100334.19
2023-03-25T21:43:42.334Z,100333.28
2023-03-25T21:46:27.910Z,100323.00
2023-03-25T21:49:13.265Z,100309.75
2023-03-25T21:51:58.454Z,100322.31
2023-03-25T21:54:48.393Z,100308.41
2023-03-25T21:57:37.719Z,100299.91
2023-03-25T22:00:24.687Z,100305.78
2023-03-25T22:03:12.115Z,100305.88
2023-03-25T22:06:02.068Z,100304.09
2023-03-25T22:08:47.677Z,100292.06
2023-03-25T22:11:35.175Z,100283.94
2023-03-25T22:14:20.128Z,100289.88
2023-03-25T22:17:05.695Z,100272.97
2023-03-25T22:19:51.216Z,100274.53
2023-03-25T22:22:36.840Z,100287.06
2023-03-25T22:25:21.966Z,100281.91
2023-03-25T22:28:07.227Z,100279.44
2023-03-25T22:30:52.498Z,100263.44
2023-03-25T22:33:38.546Z,100253.72
2023-03-25T22:36:24.206Z,100252.25
2023-03-25T22:39:10.416Z,100252.59
2023-03-25T22:41:57.874Z,100248.41
2023-03-25T22:44:44.784Z,100235.31
2023-03-25T22:47:30.055Z,100230.31
2023-03-25T22:50:15.482Z,100236.59
2023-03-25T22:53:00.523Z,100233.47
2023-03-25T22:55:53.258Z,100226.59
2023-03-25T22:58:39.454Z,100222.41
2023-03-25T23:01:26.479Z,100219.81
2023-03-25T23:04:11.323Z,100208.75
2023-03-25T23:07:07.282Z,100195.03
2023-03-25T23:09:53.472Z,100190.16
2023-03-25T23:12:38.536Z,100193.81
2023-03-25T23:15:23.544Z,100206.03
2023-03-25T23:18:09.860Z,100203.41
2023-03-25T23:20:56.301Z,100190.47
2023-03-25T23:23:52.668Z,100185.25
2023-03-25T23:26:40.933Z,100187.97
2023-03-25T23:29:26.039Z,100187.34
2023-03-25T23:32:11.300Z,100186.41
2023-03-25T23:34:58.327Z,100179.84
2023-03-25T23:37:43.580Z,100188.91
2023-03-25T23:40:28.932Z,100173.22
2023-03-25T23:43:14.236Z,100169.78
2023-03-25T23:45:59.910Z,100161.22
2023-03-25T23:48:45.376Z,100147.00
2023-03-25T23:51:34.020Z,100137.38
2023-03-25T23:54:19.304Z,100123.69
2023-03-25T23:57:04.654Z,100111.47
2023-03-25T23:59:49.871Z,100114.19
